Terminal Aerodrome Forecast
Issued by NWS Grand Forks, ND

Home | Current Version | Previous Version | Graphics & Text | Print | Product List | Glossary On
Versions: 1 2 3 4 5 6 7 8 9 10 11 12 13 14 15 16 17
000
FTUS43 KFGF 281100
TAFGFK
TAF
KGFK 281122Z 2812/2912 16009KT P6SM BKN035
     FM281500 17015G24KT P6SM BKN060
     FM281800 18024G33KT P6SM BKN120
     FM290500 20020G30KT P6SM -SHRA BKN035
     FM290900 32020G30KT P6SM VCSH OVC025=

USA.gov is the U.S. government's official web portal to all federal, state and local government web resources and services.